Time;durP1;ratioP1;P1;durP2;ratioP2;P2;SDS_P1;SDS_P2;PMS_P1;PMS_P2;Temp;Humidity;BMP_temperature;BMP_pressure;BME280_temperature;BME280_humidity;BME280_pressure;Samples;Min_cycle;Max_cycle;Signal;HPM_P1;HPM_P2
2020/12/17 00:00:36;;;;;;;0.60;0.60;;;;;;;4.46;91.50;99763.59;6115334;23;20020;-85
2020/12/17 00:03:02;;;;;;;0.88;0.88;;;;;;;4.56;90.21;99756.69;6115004;23;20017;-85
2020/12/17 00:05:28;;;;;;;2.50;1.20;;;;;;;4.49;90.19;99740.94;6115027;23;20093;-85
2020/12/17 00:07:54;;;;;;;3.20;1.33;;;;;;;4.67;89.01;99746.66;6138195;23;20010;-86
2020/12/17 00:10:21;;;;;;;1.15;1.15;;;;;;;4.82;88.88;99779.31;6137696;23;20009;-86
2020/12/17 00:12:48;;;;;;;1.55;1.45;;;;;;;4.67;88.86;99736.50;6137451;23;20006;-86
2020/12/17 00:15:18;;;;;;;1.55;1.45;;;;;;;4.60;88.80;99744.63;6113908;23;20070;-86
2020/12/17 00:17:52;;;;;;;1.75;1.63;;;;;;;4.93;88.89;99812.34;6093419;23;20014;-86
2020/12/17 00:20:20;;;;;;;2.28;2.10;;;;;;;4.89;89.83;99776.66;6115310;23;20036;-86
2020/12/17 00:22:47;;;;;;;7.03;1.80;;;;;;;4.68;89.44;99779.16;6115204;23;20028;-86
2020/12/17 00:25:18;;;;;;;4.72;1.75;;;;;;;4.76;89.90;99789.00;6139949;23;20021;-86
2020/12/17 00:27:47;;;;;;;1.20;1.20;;;;;;;4.66;90.19;99765.03;6114948;23;20014;-86
2020/12/17 00:30:14;;;;;;;3.03;2.15;;;;;;;4.78;90.00;99794.91;6114472;23;20009;-86
2020/12/17 00:32:44;;;;;;;0.70;0.70;;;;;;;5.05;90.42;99805.84;6114855;23;20014;-86
2020/12/17 00:35:10;;;;;;;2.35;2.22;;;;;;;5.00;90.82;99828.06;6114767;23;20047;-85
2020/12/17 00:37:37;;;;;;;2.92;1.55;;;;;;;4.40;90.69;99757.63;6139321;23;20022;-85
2020/12/17 00:40:09;;;;;;;0.73;0.73;;;;;;;4.93;90.67;99819.75;6141063;23;20006;-85
2020/12/17 00:42:44;;;;;;;1.88;1.77;;;;;;;4.89;90.26;99809.53;6114252;23;20045;-85
2020/12/17 00:45:13;;;;;;;2.72;1.55;;;;;;;4.60;90.30;99769.25;6113211;23;20036;-85
2020/12/17 00:47:39;;;;;;;1.70;1.60;;;;;;;4.50;89.66;99761.69;6114146;23;20061;-85
2020/12/17 00:50:09;;;;;;;5.20;3.38;;;;;;;4.36;90.67;99769.69;6117103;23;20013;-84
2020/12/17 00:52:39;;;;;;;2.60;2.38;;;;;;;4.44;90.20;99783.13;6116785;23;20001;-85
2020/12/17 00:55:05;;;;;;;1.13;1.13;;;;;;;4.98;91.09;99838.59;6116279;23;20044;-85
2020/12/17 00:57:32;;;;;;;1.05;1.05;;;;;;;4.36;90.20;99762.25;6114961;23;20010;-85
2020/12/17 00:59:58;;;;;;;2.40;2.15;;;;;;;4.61;90.55;99770.03;6116839;23;20512;-85
2020/12/17 01:02:24;;;;;;;1.20;1.20;;;;;;;4.40;90.75;99746.69;6116456;23;20017;-85
2020/12/17 01:04:50;;;;;;;1.30;1.23;;;;;;;4.74;89.71;99793.28;6118303;23;20006;-85
2020/12/17 01:07:19;;;;;;;1.83;1.73;;;;;;;4.96;91.06;99821.75;6117652;23;20006;-85
2020/12/17 01:09:45;;;;;;;1.15;0.88;;;;;;;5.05;90.89;99842.22;6117171;23;20006;-85
2020/12/17 01:12:11;;;;;;;1.17;1.17;;;;;;;4.89;90.65;99830.66;6117775;23;20021;-84
2020/12/17 01:14:37;;;;;;;1.50;1.40;;;;;;;4.56;90.01;99787.56;6118020;23;20003;-84
2020/12/17 01:17:07;;;;;;;1.25;1.15;;;;;;;4.93;90.38;99825.22;6141459;23;20029;-85
2020/12/17 01:19:33;;;;;;;0.85;0.85;;;;;;;4.54;90.33;99800.03;6118188;23;20021;-85
2020/12/17 01:22:00;;;;;;;1.60;1.08;;;;;;;4.22;90.49;99762.03;6141906;23;20013;-85
2020/12/17 01:24:26;;;;;;;0.68;0.65;;;;;;;4.67;90.28;99796.72;6142970;23;20002;-84
2020/12/17 01:26:53;;;;;;;0.70;0.70;;;;;;;4.54;91.59;99795.34;6119622;23;20037;-84
2020/12/17 01:29:20;;;;;;;1.10;1.00;;;;;;;4.00;92.28;99741.78;6119382;23;20006;-85
2020/12/17 01:31:46;;;;;;;1.60;1.35;;;;;;;4.04;92.71;99745.38;6118168;23;20010;-84
2020/12/17 01:34:11;;;;;;;1.20;1.20;;;;;;;4.14;92.98;99749.44;6118847;23;20029;-85
2020/12/17 01:36:37;;;;;;;1.10;1.05;;;;;;;4.38;93.52;99745.50;6119905;23;20156;-85
2020/12/17 01:39:04;;;;;;;1.05;1.05;;;;;;;4.13;93.46;99738.88;6136759;23;20022;-84
2020/12/17 01:41:32;;;;;;;0.52;0.52;;;;;;;3.98;94.22;99724.97;6118013;23;20014;-85
2020/12/17 01:44:03;;;;;;;0.70;0.70;;;;;;;4.09;93.71;99750.56;6141959;23;20017;-85
2020/12/17 01:46:30;;;;;;;0.98;0.98;;;;;;;3.88;94.48;99711.94;6140538;23;20032;-85
2020/12/17 01:48:56;;;;;;;1.38;1.27;;;;;;;4.25;94.58;99771.47;6138944;23;20009;-85
2020/12/17 01:51:24;;;;;;;;;;;;;;;4.69;94.13;99805.38;6142897;23;19998;-85
2020/12/17 01:53:54;;;;;;;3.50;2.33;;;;;;;4.29;94.18;99753.94;6118406;23;19940;-85
2020/12/17 01:56:28;;;;;;;1.88;1.67;;;;;;;4.41;94.21;99750.22;6142590;23;20077;-85
2020/12/17 01:59:07;;;;;;;0.85;0.80;;;;;;;3.95;93.70;99714.78;6117745;23;20037;-85
2020/12/17 02:01:35;;;;;;;1.70;1.58;;;;;;;4.02;94.14;99720.34;6139141;23;20072;-85
2020/12/17 02:04:02;;;;;;;1.20;1.20;;;;;;;4.06;95.54;99751.28;6138218;23;20010;-84
2020/12/17 02:06:28;;;;;;;5.60;1.63;;;;;;;3.79;95.85;99718.81;6139754;23;20005;-85
2020/12/17 02:08:54;;;;;;;2.40;2.30;;;;;;;4.61;95.04;99790.00;6115850;23;20021;-85
2020/12/17 02:11:21;;;;;;;1.58;1.48;;;;;;;4.34;94.27;99748.16;6116231;23;20013;-85
2020/12/17 02:13:47;;;;;;;1.65;1.58;;;;;;;3.99;94.02;99728.50;6141980;23;20006;-85
2020/12/17 02:16:15;;;;;;;2.35;2.22;;;;;;;4.58;94.15;99793.44;6142911;23;20013;-85
2020/12/17 02:18:42;;;;;;;0.98;0.98;;;;;;;3.98;93.80;99688.63;6141919;23;20017;-85
2020/12/17 02:21:08;;;;;;;2.17;1.85;;;;;;;4.21;92.72;99713.22;6141844;23;20002;-85
2020/12/17 02:23:34;;;;;;;1.50;1.45;;;;;;;4.20;91.99;99689.75;6116498;23;20013;-85
2020/12/17 02:26:02;;;;;;;3.00;1.67;;;;;;;4.60;91.83;99724.66;6141544;23;20009;-85
2020/12/17 02:28:29;;;;;;;1.02;0.93;;;;;;;4.58;91.26;99744.19;6143491;23;20025;-85
2020/12/17 02:30:55;;;;;;;1.27;1.17;;;;;;;4.48;89.83;99701.06;6117100;23;20075;-85
2020/12/17 02:33:21;;;;;;;1.60;1.52;;;;;;;5.23;88.71;99782.19;6140568;23;20036;-85
2020/12/17 02:35:46;;;;;;;0.98;0.98;;;;;;;5.20;89.01;99783.69;6115501;23;20065;-85
2020/12/17 02:38:12;;;;;;;2.53;1.55;;;;;;;4.47;89.51;99722.16;6141573;23;20018;-85
2020/12/17 02:40:40;;;;;;;1.27;1.25;;;;;;;4.32;90.03;99686.78;6117427;23;20040;-85
2020/12/17 02:43:12;;;;;;;2.13;2.05;;;;;;;4.71;89.46;99751.00;6116056;23;20006;-86
2020/12/17 02:45:49;;;;;;;0.88;0.82;;;;;;;4.66;88.89;99728.66;6116483;23;20006;-85
2020/12/17 02:48:16;;;;;;;0.73;0.73;;;;;;;4.53;89.04;99698.00;6115592;23;20013;-85
2020/12/17 02:50:42;;;;;;;3.50;2.03;;;;;;;4.51;90.03;99733.16;6117281;23;20002;-85
2020/12/17 02:53:10;;;;;;;3.08;2.88;;;;;;;4.61;90.57;99759.88;6117976;23;20029;-85
2020/12/17 02:55:36;;;;;;;3.63;1.75;;;;;;;4.41;91.70;99718.16;6142360;23;20010;-84
2020/12/17 02:58:05;;;;;;;0.65;0.65;;;;;;;4.31;91.84;99705.16;6118476;23;20005;-85
2020/12/17 03:00:31;;;;;;;0.80;0.80;;;;;;;4.38;91.32;99718.13;6117399;23;19998;-85
2020/12/17 03:02:58;;;;;;;1.27;1.17;;;;;;;4.32;91.18;99706.72;6117532;23;20010;-85
2020/12/17 03:05:24;;;;;;;0.43;0.43;;;;;;;4.24;91.60;99713.25;6118806;23;20091;-85
2020/12/17 03:07:51;;;;;;;0.85;0.85;;;;;;;4.29;91.74;99717.59;6117992;23;20446;-85
2020/12/17 03:10:17;;;;;;;0.73;0.60;;;;;;;4.24;92.52;99710.50;6118069;23;20013;-85
2020/12/17 03:12:44;;;;;;;0.82;0.82;;;;;;;4.50;91.69;99737.06;6141906;23;20016;-85
2020/12/17 03:15:11;;;;;;;0.20;0.20;;;;;;;4.25;91.70;99709.34;6118206;23;20006;-85
2020/12/17 03:17:38;;;;;;;3.75;2.85;;;;;;;4.40;91.10;99713.84;6140207;23;20033;-85
2020/12/17 03:20:05;;;;;;;1.45;1.20;;;;;;;4.60;91.35;99757.50;6116925;23;20066;-86
2020/12/17 03:22:32;;;;;;;1.90;1.83;;;;;;;4.45;90.70;99729.19;6141914;23;20039;-86
2020/12/17 03:24:59;;;;;;;1.02;1.02;;;;;;;4.26;90.89;99680.84;6117154;23;20010;-85
2020/12/17 03:27:24;;;;;;;1.63;1.55;;;;;;;4.63;90.75;99735.69;6092077;23;20010;-85
2020/12/17 03:29:52;;;;;;;1.80;1.65;;;;;;;4.14;91.46;99696.69;6141344;23;20032;-85
2020/12/17 03:32:18;;;;;;;1.20;1.20;;;;;;;4.89;91.49;99786.84;6116936;23;20029;-85
2020/12/17 03:34:44;;;;;;;1.50;1.40;;;;;;;4.33;91.70;99688.38;6093255;23;20014;-86
2020/12/17 03:37:13;;;;;;;4.03;1.67;;;;;;;4.68;91.70;99735.34;6116784;23;20098;-85
2020/12/17 03:39:39;;;;;;;2.10;2.00;;;;;;;4.24;91.58;99696.03;6118782;23;20075;-85
2020/12/17 03:42:05;;;;;;;0.65;0.65;;;;;;;5.05;92.01;99786.66;6117664;23;20413;-85
2020/12/17 03:44:31;;;;;;;2.70;2.60;;;;;;;4.94;90.69;99755.63;6116798;23;20009;-86
2020/12/17 03:46:57;;;;;;;1.05;1.05;;;;;;;4.53;90.63;99708.16;6116967;23;20054;-85
2020/12/17 03:49:26;;;;;;;3.17;2.95;;;;;;;4.52;89.95;99690.19;6141366;23;20010;-85
2020/12/17 03:51:51;;;;;;;6.18;2.08;;;;;;;5.29;89.74;99783.44;6116317;23;20002;-85
2020/12/17 03:54:20;;;;;;;0.30;0.30;;;;;;;4.55;90.40;99719.53;6142908;23;20009;-85
2020/12/17 03:56:49;;;;;;;3.40;2.42;;;;;;;4.62;89.86;99716.88;6143042;23;20002;-86
2020/12/17 03:59:15;;;;;;;3.53;3.22;;;;;;;4.78;89.62;99731.94;6117287;23;20143;-86
2020/12/17 04:01:41;;;;;;;0.75;0.75;;;;;;;5.26;89.71;99786.91;6116765;23;20002;-86
2020/12/17 04:04:07;;;;;;;1.85;1.75;;;;;;;4.77;89.08;99724.88;6116997;23;20010;-85
2020/12/17 04:06:33;;;;;;;4.40;1.40;;;;;;;4.35;90.86;99686.81;6141693;23;20017;-83
2020/12/17 04:08:59;;;;;;;2.22;2.13;;;;;;;4.28;92.38;99702.38;6118258;23;20009;-82
2020/12/17 04:11:25;;;;;;;2.92;2.78;;;;;;;4.68;92.04;99743.56;6144797;23;19986;-82
2020/12/17 04:13:50;;;;;;;2.17;1.88;;;;;;;4.35;91.67;99700.50;6120823;23;20006;-82
2020/12/17 04:16:16;;;;;;;2.58;1.60;;;;;;;4.28;91.83;99711.34;6120549;23;20006;-82
2020/12/17 04:18:42;;;;;;;3.17;2.97;;;;;;;4.26;92.03;99710.94;6120366;23;19982;-82
2020/12/17 04:21:08;;;;;;;1.98;1.90;;;;;;;4.15;92.12;99703.75;6119687;23;20054;-82
2020/12/17 04:23:35;;;;;;;0.73;0.73;;;;;;;4.19;92.58;99713.56;6121231;23;20018;-84
2020/12/17 04:26:02;;;;;;;1.65;1.27;;;;;;;4.20;93.73;99750.69;6123350;23;20013;-83
2020/12/17 04:28:28;;;;;;;2.20;2.10;;;;;;;3.76;94.19;99703.91;6147427;23;20013;-84
2020/12/17 04:30:55;;;;;;;1.67;1.58;;;;;;;4.17;93.38;99724.06;6147072;23;20006;-84
2020/12/17 04:33:22;;;;;;;2.65;2.45;;;;;;;4.63;92.22;99754.03;6147785;23;20022;-84
2020/12/17 04:35:49;;;;;;;2.63;2.50;;;;;;;4.28;91.70;99729.72;6123428;23;20014;-84
2020/12/17 04:38:15;;;;;;;0.95;0.93;;;;;;;5.08;91.01;99797.66;6122817;23;20261;-84
2020/12/17 04:40:41;;;;;;;6.82;2.05;;;;;;;4.43;91.02;99690.44;6146872;23;20010;-84
2020/12/17 04:43:08;;;;;;;10.15;1.88;;;;;;;4.38;91.09;99723.59;6099659;23;19994;-85
2020/12/17 04:45:34;;;;;;;1.70;1.67;;;;;;;4.45;90.32;99712.75;6098879;23;20000;-84
2020/12/17 04:48:05;;;;;;;1.05;1.05;;;;;;;4.62;90.67;99730.56;6148488;23;20069;-83
2020/12/17 04:50:32;;;;;;;1.20;1.20;;;;;;;4.34;90.33;99711.84;6148104;23;20004;-83
2020/12/17 04:53:01;;;;;;;1.08;0.65;;;;;;;4.64;91.37;99753.66;6147112;23;20013;-84
2020/12/17 04:55:30;;;;;;;0.73;0.73;;;;;;;4.32;90.96;99697.72;6148398;23;20017;-83
2020/12/17 04:58:00;;;;;;;3.00;2.78;;;;;;;4.21;90.97;99697.59;6123667;23;19990;-83
2020/12/17 05:00:27;;;;;;;2.45;1.70;;;;;;;4.22;90.99;99742.13;6123716;22;20020;-84
2020/12/17 05:02:56;;;;;;;2.47;2.22;;;;;;;4.54;92.07;99768.00;6122722;23;20006;-83
2020/12/17 05:05:23;;;;;;;1.17;1.08;;;;;;;4.47;92.21;99770.63;6098151;23;20017;-83
2020/12/17 05:07:51;;;;;;;6.07;1.30;;;;;;;4.33;91.04;99732.13;6123176;23;20052;-83
2020/12/17 05:10:17;;;;;;;1.87;1.33;;;;;;;4.61;91.17;99745.41;6122628;23;20229;-85
2020/12/17 05:12:42;;;;;;;0.43;0.43;;;;;;;4.25;90.61;99724.97;6120791;23;20030;-83
2020/12/17 05:15:09;;;;;;;0.70;0.70;;;;;;;4.30;91.72;99741.84;6121194;23;20009;-84
2020/12/17 05:17:35;;;;;;;1.88;1.77;;;;;;;4.71;91.32;99786.59;6120537;23;20002;-85
2020/12/17 05:20:00;;;;;;;1.08;1.05;;;;;;;4.34;91.28;99739.19;6145728;23;20041;-84
2020/12/17 05:22:28;;;;;;;1.85;1.73;;;;;;;4.84;90.37;99795.38;6144112;23;20002;-85
2020/12/17 05:24:57;;;;;;;3.33;1.60;;;;;;;4.37;90.34;99727.50;6119642;23;20006;-84
2020/12/17 05:27:23;;;;;;;1.38;1.38;;;;;;;4.31;90.20;99746.19;6146747;23;20401;-84
2020/12/17 05:29:55;;;;;;;1.13;1.10;;;;;;;4.55;90.70;99786.00;6147836;23;20074;-83
2020/12/17 05:32:21;;;;;;;0.55;0.55;;;;;;;4.77;90.92;99796.06;6146941;23;20010;-84
2020/12/17 05:34:49;;;;;;;1.27;1.17;;;;;;;4.26;91.00;99743.75;6099288;23;20035;-84
2020/12/17 05:37:17;;;;;;;2.80;2.33;;;;;;;4.21;91.58;99746.03;6146442;23;20029;-84
2020/12/17 05:39:43;;;;;;;2.10;1.90;;;;;;;4.29;91.77;99747.69;6138256;23;20018;-85
2020/12/17 05:42:14;;;;;;;4.40;2.58;;;;;;;4.61;92.08;99800.94;6147379;23;20020;-85
2020/12/17 05:44:42;;;;;;;2.15;2.05;;;;;;;4.38;92.73;99751.75;6121801;23;20006;-84
2020/12/17 05:47:13;;;;;;;1.65;1.55;;;;;;;4.63;92.63;99756.78;6121352;23;20025;-86
2020/12/17 05:49:41;;;;;;;0.70;0.70;;;;;;;5.14;92.46;99828.22;6121463;23;20014;-84
2020/12/17 05:52:16;;;;;;;1.50;1.42;;;;;;;4.38;92.41;99757.22;6121470;23;20025;-84
2020/12/17 05:55:00;;;;;;;1.95;1.88;;;;;;;4.28;93.95;99749.63;6123168;23;20017;-84
2020/12/17 05:57:26;;;;;;;1.58;1.58;;;;;;;4.38;93.20;99750.97;6123545;23;20028;-84
2020/12/17 05:59:58;;;;;;;0.73;0.73;;;;;;;4.64;93.01;99780.25;6147034;23;20028;-84
2020/12/17 06:02:29;;;;;;;2.10;2.00;;;;;;;5.12;93.16;99827.84;6149154;23;20006;-84
2020/12/17 06:05:08;;;;;;;2.63;2.42;;;;;;;4.47;92.77;99754.19;6123269;23;20006;-83
2020/12/17 06:07:47;;;;;;;1.85;1.75;;;;;;;4.19;93.02;99742.84;6124220;23;20028;-84
2020/12/17 06:10:21;;;;;;;8.57;2.95;;;;;;;4.13;94.08;99747.84;6147804;22;20048;-84
2020/12/17 06:12:50;;;;;;;1.40;1.38;;;;;;;4.28;94.32;99759.81;6123533;23;19993;-84
2020/12/17 06:15:21;;;;;;;0.98;0.98;;;;;;;5.01;93.63;99837.84;6123579;23;20435;-83
2020/12/17 06:17:54;;;;;;;4.10;2.63;;;;;;;4.49;93.11;99771.84;6147591;23;20036;-83
2020/12/17 06:20:31;;;;;;;1.95;1.85;;;;;;;4.80;93.31;99806.28;6147113;22;20077;-83
2020/12/17 06:23:03;;;;;;;1.20;1.20;;;;;;;4.22;93.31;99758.56;6121301;23;20013;-85
2020/12/17 06:25:32;;;;;;;3.15;1.27;;;;;;;4.42;93.44;99762.75;6121508;23;20030;-84
2020/12/17 06:28:00;;;;;;;3.05;2.75;;;;;;;4.47;93.00;99755.00;6146985;23;20053;-84
2020/12/17 06:30:32;;;;;;;0.80;0.80;;;;;;;4.45;91.75;99751.84;6122018;23;20009;-84
2020/12/17 06:33:01;;;;;;;2.10;1.60;;;;;;;5.12;91.87;99812.19;6123330;23;20069;-86
2020/12/17 06:35:50;;;;;;;;;;;;;;;5.45;90.53;99849.75;6124245;23;20002;-84
2020/12/17 06:38:22;;;;;;;2.42;2.33;;;;;;;4.98;90.46;99784.63;6142102;23;19959;-84
2020/12/17 06:40:48;;;;;;;0.75;0.75;;;;;;;4.91;90.46;99773.56;6277211;22;20014;-84
2020/12/17 06:43:39;;;;;;;1.50;1.13;;;;;;;4.89;89.38;99765.72;6248555;23;19998;-85
2020/12/17 06:46:08;;;;;;;2.50;2.40;;;;;;;5.02;88.90;99771.75;6250401;23;20001;-85
2020/12/17 06:48:42;;;;;;;1.30;1.27;;;;;;;5.19;88.25;99778.59;6149622;22;20017;-85
2020/12/17 06:51:44;;;;;;;2.67;2.47;;;;;;;6.03;86.92;99855.47;6127962;23;20017;-84
2020/12/17 06:57:05;;;;;;;3.13;2.92;;;;;;;5.55;86.29;99771.53;6149834;22;20006;-83
2020/12/17 07:07:47;;;;;;;3.83;2.20;;;;;;;6.11;82.12;99806.97;6138106;22;20267;-82
2020/12/17 07:10:32;;;;;;;2.35;2.20;;;;;;;5.92;82.58;99735.88;6120910;22;20009;-83
2020/12/17 07:13:00;;;;;;;1.70;1.63;;;;;;;6.10;83.41;99786.97;6126394;22;20040;-83
2020/12/17 07:15:35;;;;;;;2.42;2.20;;;;;;;5.89;82.89;99792.28;6125851;22;20056;-83
2020/12/17 07:18:24;;;;;;;7.22;3.67;;;;;;;6.18;85.16;99872.88;6147023;23;20026;-83
2020/12/17 07:20:52;;;;;;;2.05;1.95;;;;;;;5.71;86.34;99811.28;6119633;23;20018;-83
2020/12/17 07:23:19;;;;;;;3.72;3.40;;;;;;;5.40;86.10;99767.88;6118300;23;20013;-85
2020/12/17 07:25:52;;;;;;;5.03;3.63;;;;;;;5.42;85.90;99773.78;6115905;23;20010;-84
2020/12/17 07:28:24;;;;;;;2.17;2.00;;;;;;;5.66;84.29;99788.91;6146896;23;20010;-83
2020/12/17 07:30:52;;;;;;;1.20;1.10;;;;;;;5.48;83.84;99802.44;6147114;23;20002;-83
2020/12/17 07:33:38;;;;;;;1.85;1.73;;;;;;;5.52;85.22;99803.25;6097666;23;20017;-83
2020/12/17 07:36:05;;;;;;;2.97;2.58;;;;;;;6.26;84.59;99881.97;6131829;23;20010;-83
2020/12/17 07:38:31;;;;;;;3.88;3.58;;;;;;;5.64;84.38;99804.94;6122794;23;19994;-82
2020/12/17 07:40:57;;;;;;;5.82;4.60;;;;;;;5.86;84.60;99820.41;6119972;23;20013;-82
2020/12/17 07:43:39;;;;;;;4.60;4.13;;;;;;;6.22;83.39;99845.47;6122529;22;19997;-84
2020/12/17 07:46:08;;;;;;;5.35;2.03;;;;;;;5.91;82.77;99813.81;6160194;23;20024;-84
2020/12/17 07:48:34;;;;;;;23.70;6.88;;;;;;;6.55;83.22;99889.28;6146996;23;19990;-83
2020/12/17 07:51:12;;;;;;;7.40;5.03;;;;;;;6.44;83.28;99839.00;6095832;23;19997;-86
2020/12/17 07:53:40;;;;;;;2.95;2.45;;;;;;;5.96;81.10;99805.28;6095189;23;20014;-86
2020/12/17 07:59:01;;;;;;;8.90;2.67;;;;;;;6.19;81.60;99814.09;6213522;23;20081;-86
2020/12/17 08:01:32;;;;;;;3.35;3.13;;;;;;;6.00;82.72;99811.56;6214096;23;20001;-86
2020/12/17 08:03:58;;;;;;;1.45;1.45;;;;;;;6.05;82.58;99805.72;6189429;23;20040;-86
2020/12/17 08:06:28;;;;;;;8.40;2.75;;;;;;;6.19;81.06;99797.63;6214924;23;20003;-86
2020/12/17 08:08:59;;;;;;;4.15;3.75;;;;;;;6.19;81.10;99786.66;6157105;22;20078;-88
2020/12/17 08:11:26;;;;;;;5.88;3.92;;;;;;;6.93;80.38;99874.25;6120995;23;20006;-87
2020/12/17 08:14:00;;;;;;;7.50;4.55;;;;;;;6.30;80.22;99812.22;6119265;23;20071;-87
2020/12/17 08:16:26;;;;;;;3.17;2.97;;;;;;;7.05;80.09;99879.44;6119808;23;20006;-87
2020/12/17 08:18:56;;;;;;;17.80;3.40;;;;;;;6.92;79.42;99834.22;6120382;23;20036;-87
2020/12/17 08:21:23;;;;;;;5.25;3.40;;;;;;;6.72;79.67;99819.16;6248076;23;20098;-87
2020/12/17 08:26:19;;;;;;;;;;;;;;;7.15;80.22;99875.16;6144878;23;20043;-88
2020/12/17 08:28:47;;;;;;;2.50;2.10;;;;;;;6.64;78.53;99788.13;6123451;23;19915;-86
2020/12/17 08:31:31;;;;;;;4.60;3.33;;;;;;;6.99;78.91;99784.00;6147933;23;20093;-87
2020/12/17 08:34:04;;;;;;;3.47;3.10;;;;;;;6.89;77.39;99813.78;6123252;23;19994;-86
2020/12/17 08:36:34;;;;;;;1.30;1.10;;;;;;;6.96;78.40;99802.03;6123486;23;20009;-87
2020/12/17 08:39:06;;;;;;;2.33;2.10;;;;;;;6.52;78.01;99811.19;6122772;23;20006;-87
2020/12/17 08:41:37;;;;;;;8.07;2.67;;;;;;;6.90;77.56;99804.38;6119870;23;20033;-87
2020/12/17 08:44:06;;;;;;;1.63;1.55;;;;;;;6.52;78.03;99810.41;6147191;23;20006;-86
2020/12/17 08:46:44;;;;;;;3.38;2.67;;;;;;;6.99;77.23;99823.25;6120165;23;20013;-86
2020/12/17 08:49:12;;;;;;;1.85;1.75;;;;;;;7.16;77.57;99833.53;6118769;23;20085;-86
2020/12/17 08:51:39;;;;;;;3.40;2.63;;;;;;;7.61;75.72;99850.59;6121976;23;20049;-87
2020/12/17 08:54:07;;;;;;;8.63;4.15;;;;;;;7.78;74.58;99814.09;6123760;23;20002;-87
2020/12/17 08:56:33;;;;;;;7.40;4.10;;;;;;;7.05;75.54;99793.47;6122813;23;20045;-88
2020/12/17 08:59:05;;;;;;;2.50;2.30;;;;;;;7.43;76.44;99852.50;6122962;23;20040;-87
2020/12/17 09:01:33;;;;;;;3.78;3.58;;;;;;;6.88;78.00;99849.88;6142021;23;20010;-87
2020/12/17 09:04:04;;;;;;;1.95;1.83;;;;;;;6.48;79.80;99843.34;6277941;22;20022;-86
2020/12/17 09:06:31;;;;;;;6.47;2.17;;;;;;;5.74;80.87;99760.38;6317069;22;20026;-87
2020/12/17 09:09:14;;;;;;;3.60;3.35;;;;;;;6.67;79.14;99786.59;6323109;22;20439;-87
2020/12/17 09:11:43;;;;;;;2.35;2.22;;;;;;;6.86;79.05;99868.72;6325472;22;20010;-86
2020/12/17 09:14:12;;;;;;;3.00;2.83;;;;;;;6.33;79.88;99753.03;6326001;22;20007;-85
2020/12/17 09:16:42;;;;;;;2.03;1.92;;;;;;;6.92;78.30;99768.28;6335277;22;19983;-84
2020/12/17 09:19:12;;;;;;;0.75;0.75;;;;;;;7.10;78.83;99859.81;6333166;22;20026;-85
2020/12/17 09:21:57;;;;;;;1.80;1.70;;;;;;;7.24;75.83;99788.41;6328761;22;20022;-84
2020/12/17 09:24:39;;;;;;;1.58;1.52;;;;;;;7.53;74.38;99791.25;6336466;22;20068;-85
2020/12/17 09:36:12;;;;;;;2.55;2.45;;;;;;;8.54;72.10;99841.31;6115906;22;19921;31
2020/12/17 09:38:43;;;;;;;1.08;1.08;;;;;;;8.08;71.17;99764.97;6171778;22;20000;31
2020/12/17 10:24:54;;;;;;;1.65;1.55;;;;;;;7.02;75.56;99723.56;6106913;22;20071;-89
2020/12/17 10:29:56;;;;;;;1.25;1.15;;;;;;;7.25;75.36;99721.28;6097958;22;20032;-89
2020/12/17 10:40:11;;;;;;;2.38;1.63;;;;;;;8.01;71.35;99751.25;6148640;23;20022;-87
2020/12/17 10:51:13;;;;;;;1.83;1.73;;;;;;;7.73;72.72;99729.97;6117472;23;20020;-87
2020/12/17 10:53:45;;;;;;;2.67;1.23;;;;;;;7.78;73.88;99721.34;6096533;23;20009;-88
2020/12/17 10:56:11;;;;;;;2.03;1.92;;;;;;;7.56;73.58;99714.25;6251404;22;20009;-87
2020/12/17 10:58:39;;;;;;;18.73;13.98;;;;;;;8.41;73.63;99818.09;6149237;23;20022;-88
2020/12/17 11:01:06;;;;;;;4.95;4.63;;;;;;;7.93;71.98;99713.09;6249509;23;19997;-88
2020/12/17 11:03:35;;;;;;;11.43;3.05;;;;;;;7.87;71.98;99690.69;6124427;23;19998;-88
2020/12/17 11:06:02;;;;;;;1.70;1.38;;;;;;;8.10;73.17;99707.56;6153297;22;20252;-88
2020/12/17 11:08:30;;;;;;;2.47;2.33;;;;;;;8.06;72.25;99709.56;6146178;22;20056;-88
2020/12/17 11:10:58;;;;;;;8.93;4.20;;;;;;;7.93;71.89;99694.63;6225237;23;20010;-88
2020/12/17 11:13:27;;;;;;;3.03;2.53;;;;;;;8.16;73.47;99730.78;6225894;23;20006;-88
2020/12/17 11:15:53;;;;;;;1.05;1.05;;;;;;;7.91;73.09;99680.47;6226667;22;20005;-88
2020/12/17 11:26:03;;;;;;;1.27;1.27;;;;;;;8.30;71.47;99702.47;6147986;22;20006;-88
2020/12/17 11:28:33;;;;;;;2.58;2.38;;;;;;;8.52;71.77;99708.69;6149161;23;19997;-88
2020/12/17 11:41:48;;;;;;;1.92;1.85;;;;;;;8.63;72.13;99736.22;6219721;22;20015;-88
2020/12/17 11:44:16;;;;;;;4.63;3.05;;;;;;;8.07;72.10;99686.38;6222485;23;20011;-89
2020/12/17 11:46:43;;;;;;;3.88;3.58;;;;;;;8.32;73.09;99707.59;6247177;23;19999;-88
2020/12/17 11:49:13;;;;;;;4.60;4.30;;;;;;;7.93;72.96;99663.56;6271847;23;20008;-88
2020/12/17 11:51:40;;;;;;;1.40;1.25;;;;;;;8.11;72.80;99687.13;6245298;23;20012;-88
2020/12/17 11:54:32;;;;;;;6.05;4.28;;;;;;;8.31;73.21;99697.75;6224327;22;20047;-87
2020/12/17 12:25:30;;;;;;;4.05;3.75;;;;;;;7.77;74.26;99675.00;6241071;23;20020;-88
2020/12/17 12:27:56;;;;;;;7.72;3.92;;;;;;;7.74;74.88;99682.06;6190071;23;20001;-88
2020/12/17 12:30:25;;;;;;;8.57;3.10;;;;;;;8.08;74.21;99687.91;6215204;23;20005;-88
2020/12/17 12:32:52;;;;;;;4.05;2.83;;;;;;;8.10;72.60;99682.81;6217016;23;19989;-88
2020/12/17 12:35:21;;;;;;;1.80;1.70;;;;;;;8.09;73.96;99681.22;6215799;23;20012;-88
2020/12/17 12:37:47;;;;;;;4.13;3.47;;;;;;;8.35;72.98;99704.03;6218063;23;20015;-88
2020/12/17 12:40:15;;;;;;;2.00;1.90;;;;;;;7.94;73.21;99690.69;6243334;23;20134;-88
2020/12/17 12:42:41;;;;;;;4.13;2.75;;;;;;;8.25;73.48;99710.31;6192425;23;20008;-88
2020/12/17 12:45:13;;;;;;;3.60;2.88;;;;;;;8.60;73.82;99776.38;6216791;23;20072;-88
2020/12/17 12:47:43;;;;;;;6.05;3.40;;;;;;;7.85;74.13;99662.00;6184794;22;20010;-87
2020/12/17 12:53:00;;;;;;;15.52;3.38;;;;;;;7.92;74.81;99693.03;6073462;22;20337;-87
2020/12/17 12:55:28;;;;;;;3.00;2.75;;;;;;;7.95;73.69;99689.53;6096476;22;20007;-88
2020/12/17 13:08:19;;;;;;;3.13;2.03;;;;;;;7.66;74.95;99685.97;6330137;22;20086;-88
2020/12/17 13:13:24;;;;;;;2.88;2.65;;;;;;;7.71;75.56;99729.63;6090454;22;20025;-87
2020/12/17 13:15:50;;;;;;;3.08;1.70;;;;;;;7.61;76.48;99702.88;6121759;23;20021;-88
2020/12/17 13:18:18;;;;;;;1.45;0.80;;;;;;;7.95;76.88;99710.75;6123653;23;20013;-88
2020/12/17 13:20:45;;;;;;;1.92;1.80;;;;;;;7.94;76.07;99701.69;6124045;23;20010;-88
2020/12/17 13:23:15;;;;;;;;;;;;;;;8.10;77.01;99765.38;6148889;23;20017;-88
2020/12/17 13:25:41;;;;;;;1.80;1.70;;;;;;;7.68;76.74;99699.34;6123146;23;19908;-88
2020/12/17 13:28:12;;;;;;;2.35;2.25;;;;;;;7.45;76.91;99705.22;6122365;23;20006;-88
2020/12/17 13:30:38;;;;;;;3.35;3.13;;;;;;;7.36;79.06;99727.56;6247978;23;20006;-88
2020/12/17 13:33:05;;;;;;;3.73;3.13;;;;;;;7.26;81.00;99713.81;6144874;23;20006;-88
2020/12/17 13:35:31;;;;;;;7.13;3.72;;;;;;;7.18;82.00;99702.00;6118576;23;20014;-88
2020/12/17 13:37:57;;;;;;;3.80;3.47;;;;;;;6.82;82.40;99692.09;6118833;23;20026;-88
2020/12/17 13:40:28;;;;;;;1.80;1.70;;;;;;;7.26;84.63;99771.53;6144718;23;20054;-88
2020/12/17 13:42:53;;;;;;;;;;;;;;;7.50;83.49;99776.31;6119040;23;20022;-88
2020/12/17 13:45:19;;;;;;;2.30;2.20;;;;;;;7.04;82.90;99762.44;6121137;23;19909;-88
2020/12/17 13:47:45;;;;;;;1.92;1.83;;;;;;;6.61;83.07;99698.28;6121835;23;20006;-88
2020/12/17 13:50:11;;;;;;;5.38;4.93;;;;;;;6.64;83.49;99680.25;6134249;23;20002;-88
2020/12/17 13:52:38;;;;;;;18.42;7.57;;;;;;;7.26;84.36;99783.31;6120266;23;20002;-88
2020/12/17 14:14:20;;;;;;;14.32;4.18;;;;;;;6.29;87.62;99730.25;6071518;22;20065;-89
2020/12/17 14:55:50;;;;;;;3.38;2.22;;;;;;;6.13;92.80;99854.03;6141018;22;20037;-87
2020/12/17 14:58:18;;;;;;;4.63;4.22;;;;;;;5.87;93.25;99807.50;6123698;23;20049;-87
2020/12/17 15:00:48;;;;;;;11.20;3.88;;;;;;;5.50;92.82;99761.72;6124448;22;20017;-87
2020/12/17 15:05:54;;;;;;;3.33;3.13;;;;;;;5.47;93.48;99762.47;6103999;22;19923;-87
2020/12/17 15:08:49;;;;;;;3.28;2.33;;;;;;;5.99;93.18;99834.69;6123605;23;20002;-86
2020/12/17 15:11:30;;;;;;;3.08;2.78;;;;;;;5.68;92.59;99801.06;6149669;22;19994;-88
2020/12/17 15:19:07;;;;;;;5.00;4.70;;;;;;;5.85;93.27;99807.06;6089436;22;20020;-87
2020/12/17 15:59:41;;;;;;;3.10;3.00;;;;;;;5.36;94.14;99791.72;6072667;22;20023;-87
2020/12/17 16:02:07;;;;;;;8.40;5.55;;;;;;;5.21;94.22;99784.50;6174462;22;19997;-86
2020/12/17 16:04:33;;;;;;;3.83;3.13;;;;;;;5.37;93.59;99809.72;6136749;23;20141;-85
2020/12/17 16:12:18;;;;;;;7.20;5.60;;;;;;;5.37;93.98;99809.72;6254186;22;20008;-87